This is the latest recevied weather packets stored in our database for station/object W1RCP. If no packets are shown the sender has not sent any weather packets the latest 10 day(s).
| Time | Temp. | Humidity | Pressure | Rain* | Wind** | Luminosity | Snow |
|---|---|---|---|---|---|---|---|
| 1777996228 | 25.56° C | 51% | 1028 hPa | 0 mm | - | 860 W/m² | - |
| 1777995925 | 25° C | 52% | 1028 hPa | 0 mm | - | 716 W/m² | - |
| 1777995621 | 25° C | 53% | 1027.9 hPa | 0 mm | - | 799 W/m² | - |
| 1777995319 | 25.56° C | 52% | 1028 hPa | 0 mm | - | 784 W/m² | - |
| 1777995015 | 25° C | 55% | 1027.8 hPa | 0 mm | - | 770 W/m² | - |
| 1777994712 | 24.44° C | 56% | 1027.9 hPa | 0 mm | - | 763 W/m² | - |
| 1777994408 | 23.89° C | 57% | 1028.2 hPa | 0 mm | - | 752 W/m² | - |
| 1777994103 | 23.89° C | 57% | 1028.2 hPa | 0 mm | - | 719 W/m² | - |
| 1777993801 | 23.89° C | 56% | 1028.4 hPa | 0 mm | - | 686 W/m² | - |
| 1777993497 | 23.89° C | 57% | 1028.4 hPa | 0 mm | - | 694 W/m² | - |
| 1777993197 | 23.89° C | 57% | 1028.1 hPa | 0 mm | - | 693 W/m² | - |
| 1777992895 | 23.33° C | 58% | 1028 hPa | 0 mm | - | 694 W/m² | - |
| 1777992593 | 23.33° C | 59% | 1028.1 hPa | 0 mm | - | 685 W/m² | - |
| 1777992291 | 23.33° C | 59% | 1027.9 hPa | 0 mm | - | 654 W/m² | - |
| 1777991987 | 23.33° C | 61% | 1027.8 hPa | 0 mm | - | 367 W/m² | - |
| 1777991685 | 23.33° C | 63% | 1027.9 hPa | 0 mm | - | 549 W/m² | - |
| 1777991382 | 23.33° C | 61% | 1027.9 hPa | 0 mm | - | 669 W/m² | - |
| 1777991079 | 22.22° C | 65% | 1027.7 hPa | 0 mm | - | 649 W/m² | - |
| 1777990777 | 21.67° C | 65% | 1027.6 hPa | 0 mm | - | 602 W/m² | - |
| 1777990474 | 21.67° C | 66% | 1027.6 hPa | 0 mm | - | 482 W/m² | - |
| 1777989867 | 22.22° C | 65% | 1027.8 hPa | 0 mm | - | 566 W/m² | - |
| 1777989564 | 21.67° C | 66% | 1027.5 hPa | 0 mm | - | 541 W/m² | - |
| 1777989260 | 21.11° C | 67% | 1027.5 hPa | 0 mm | - | 451 W/m² | - |
| 1777988957 | 21.11° C | 67% | 1027.5 hPa | 0 mm | - | 387 W/m² | - |
| 1777988653 | 21.11° C | 69% | 1027.4 hPa | 0 mm | - | 360 W/m² | - |
* Rain latest hour (hover to see other rain measurements)
** Current wind speed in m/s (hover to see current wind gust speed)